createdAt,value
2018-08-23T00:02:24.035Z,41.27
2018-08-23T00:07:27.255Z,41.88
2018-08-23T00:12:41.931Z,42.93
2018-08-23T00:17:46.534Z,38.35
2018-08-23T00:22:50.630Z,42.35
2018-08-23T00:27:53.859Z,43.73
2018-08-23T00:32:58.904Z,48.78
2018-08-23T00:38:03.071Z,43.85
2018-08-23T00:43:08.459Z,44.83
2018-08-23T00:48:11.687Z,44.07
2018-08-23T00:53:15.618Z,43.33
2018-08-23T00:58:18.826Z,45.55
2018-08-23T01:03:22.075Z,43.63
2018-08-23T01:08:30.679Z,49.47
2018-08-23T01:13:34.106Z,49.38
2018-08-23T01:18:37.331Z,40.78
2018-08-23T01:23:42.199Z,47.75
2018-08-23T01:28:45.434Z,46.45
2018-08-23T01:33:48.663Z,45.70
2018-08-23T01:38:51.869Z,49.50
2018-08-23T01:43:55.111Z,42.95
2018-08-23T01:48:58.674Z,56.33
2018-08-23T01:54:01.924Z,52.78
2018-08-23T01:59:05.128Z,55.17
2018-08-23T02:04:08.315Z,54.40
2018-08-23T02:09:11.531Z,54.10
2018-08-23T02:14:14.728Z,49.60
2018-08-23T02:19:17.917Z,48.30
2018-08-23T02:24:25.530Z,50.50
2018-08-23T02:29:41.913Z,51.05
2018-08-23T02:34:46.362Z,46.00
2018-08-23T02:39:49.564Z,49.50
2018-08-23T02:44:53.024Z,47.47
2018-08-23T02:49:56.228Z,48.05
2018-08-23T02:54:59.424Z,47.83
2018-08-23T03:00:02.637Z,50.17
2018-08-23T03:05:05.813Z,43.45
2018-08-23T03:10:09.006Z,52.57
2018-08-23T03:15:12.186Z,53.92
2018-08-23T03:20:16.538Z,44.93
2018-08-23T03:25:21.797Z,50.60
2018-08-23T03:30:25.250Z,48.40
2018-08-23T03:35:28.447Z,46.65
2018-08-23T03:40:31.645Z,47.85
2018-08-23T03:45:34.874Z,47.23
2018-08-23T03:50:43.684Z,48.25
2018-08-23T03:56:10.512Z,48.10
2018-08-23T04:02:15.290Z,48.68
2018-08-23T04:07:18.574Z,46.85
2018-08-23T04:12:21.756Z,44.63
2018-08-23T04:17:24.934Z,41.07
2018-08-23T04:22:28.109Z,41.77
2018-08-23T04:27:31.287Z,41.83
2018-08-23T04:32:42.088Z,38.83
2018-08-23T04:37:45.242Z,40.60
2018-08-23T04:42:48.425Z,48.33
2018-08-23T04:47:57.106Z,48.80
2018-08-23T04:53:00.386Z,56.83
2018-08-23T04:58:04.327Z,54.50
2018-08-23T05:03:07.629Z,47.67
2018-08-23T05:08:10.837Z,49.93
2018-08-23T05:13:14.070Z,55.15
2018-08-23T05:18:17.294Z,65.90
2018-08-23T05:23:20.631Z,50.23
2018-08-23T05:28:23.771Z,41.13
2018-08-23T05:33:26.995Z,45.13
2018-08-23T05:38:30.205Z,37.67
2018-08-23T05:43:33.435Z,43.65
2018-08-23T05:48:36.646Z,33.90
2018-08-23T05:53:40.798Z,36.40
2018-08-23T05:58:43.999Z,36.33
2018-08-23T06:03:47.227Z,36.37
2018-08-23T06:08:54.702Z,34.43
2018-08-23T06:13:57.917Z,37.15
2018-08-23T06:19:01.148Z,35.05
2018-08-23T06:24:07.462Z,34.15
2018-08-23T06:29:13.434Z,35.33
2018-08-23T06:34:16.660Z,35.13
2018-08-23T06:39:19.843Z,35.45
2018-08-23T06:44:23.431Z,37.10
2018-08-23T06:49:26.653Z,38.55
2018-08-23T06:54:29.887Z,36.08
2018-08-23T06:59:33.143Z,37.13
2018-08-23T07:04:36.376Z,38.23
2018-08-23T07:09:41.480Z,38.90
2018-08-23T07:14:45.902Z,37.70
2018-08-23T07:19:49.558Z,40.17
2018-08-23T07:24:54.230Z,39.20
2018-08-23T07:29:58.586Z,39.80
2018-08-23T07:35:07.498Z,41.73
2018-08-23T07:40:18.264Z,38.28
2018-08-23T07:45:21.477Z,44.18
2018-08-23T07:50:24.695Z,36.90
2018-08-23T07:55:27.900Z,35.15
2018-08-23T08:00:36.543Z,34.35
2018-08-23T08:05:42.341Z,33.85
2018-08-23T08:10:46.128Z,33.33
2018-08-23T08:15:49.343Z,30.90
2018-08-23T08:21:01.427Z,30.48
2018-08-23T08:26:04.711Z,30.13
2018-08-23T08:31:07.971Z,31.40
2018-08-23T08:36:11.492Z,33.02
2018-08-23T08:41:14.727Z,34.35
2018-08-23T08:46:17.941Z,30.80
2018-08-23T08:51:23.690Z,31.45
2018-08-23T08:56:33.958Z,30.00
2018-08-23T09:01:37.166Z,30.43
2018-08-23T09:06:44.421Z,34.05
2018-08-23T09:11:47.599Z,33.05
2018-08-23T09:16:50.787Z,34.03
2018-08-23T09:22:03.693Z,34.55
2018-08-23T09:27:16.555Z,35.00
2018-08-23T09:32:29.403Z,34.55
2018-08-23T09:37:36.223Z,33.23
2018-08-23T09:42:39.487Z,32.10
2018-08-23T09:47:42.728Z,30.37
2018-08-23T09:52:47.994Z,32.50
2018-08-23T09:57:51.233Z,31.02
2018-08-23T10:02:59.775Z,27.95
2018-08-23T10:08:08.542Z,27.37
2018-08-23T10:13:17.242Z,28.27
2018-08-23T10:18:26.922Z,29.42
2018-08-23T10:23:30.143Z,29.75
2018-08-23T10:28:39.144Z,29.02
2018-08-23T10:33:42.318Z,29.03
2018-08-23T10:38:45.555Z,26.10
2018-08-23T10:43:49.163Z,24.07
2018-08-23T10:48:52.335Z,23.90
2018-08-23T10:53:55.545Z,25.50
2018-08-23T10:58:58.818Z,26.87
2018-08-23T11:04:06.683Z,26.68
2018-08-23T11:09:15.270Z,27.98
2018-08-23T11:14:23.935Z,30.08
2018-08-23T11:19:32.648Z,30.57
2018-08-23T11:24:36.059Z,30.70
2018-08-23T11:29:39.475Z,35.10
2018-08-23T11:34:42.574Z,35.50
2018-08-23T11:39:45.824Z,37.97
2018-08-23T11:44:49.052Z,36.83
2018-08-23T11:49:52.385Z,38.98
2018-08-23T11:54:55.691Z,39.67
2018-08-23T11:59:58.933Z,37.65
2018-08-23T12:05:02.196Z,35.15
2018-08-23T12:10:06.014Z,33.50
2018-08-23T12:15:09.367Z,31.05
2018-08-23T12:20:12.620Z,32.05
2018-08-23T12:25:16.668Z,29.32
2018-08-23T12:30:20.206Z,30.63
2018-08-23T12:35:23.578Z,30.00
2018-08-23T12:40:33.028Z,30.30
2018-08-23T12:45:41.628Z,29.30
2018-08-23T12:50:45.059Z,31.52
2018-08-23T12:55:48.257Z,26.95
2018-08-23T13:00:51.468Z,26.33
2018-08-23T13:05:54.655Z,27.77
2018-08-23T13:10:57.854Z,27.37
2018-08-23T13:16:01.005Z,26.17
2018-08-23T13:21:04.220Z,27.70
2018-08-23T13:26:07.436Z,22.98
2018-08-23T13:31:10.818Z,25.00
2018-08-23T13:36:14.188Z,24.02
2018-08-23T13:41:17.294Z,26.42
2018-08-23T13:46:20.828Z,27.73
2018-08-23T13:51:24.149Z,23.90
2018-08-23T13:56:27.389Z,24.90
2018-08-23T14:01:30.615Z,23.27
2018-08-23T14:06:33.955Z,22.75
2018-08-23T14:11:37.178Z,22.25
2018-08-23T14:16:40.456Z,21.97
2018-08-23T14:21:43.973Z,19.48
2018-08-23T14:26:47.234Z,21.52
2018-08-23T14:31:50.488Z,18.93
2018-08-23T14:36:53.705Z,21.50
2018-08-23T15:42:59.781Z,20.10
2018-08-23T15:48:03.069Z,18.10
2018-08-23T15:53:06.293Z,21.35
2018-08-23T15:58:09.527Z,19.12
2018-08-23T16:03:12.758Z,18.32
2018-08-23T16:08:16.040Z,18.40
2018-08-23T16:13:19.239Z,18.00
2018-08-23T16:18:27.982Z,18.98
2018-08-23T16:23:31.231Z,22.80
2018-08-23T16:28:34.510Z,21.73
2018-08-23T16:33:38.238Z,23.27
2018-08-23T16:38:41.459Z,22.90
2018-08-23T16:43:44.690Z,25.93
2018-08-23T16:48:47.908Z,25.53
2018-08-23T16:53:51.127Z,24.07
2018-08-23T16:58:54.639Z,24.10
2018-08-23T17:03:58.320Z,24.77
2018-08-23T17:09:01.556Z,23.38
2018-08-23T17:14:04.756Z,26.02
2018-08-23T17:19:07.999Z,25.47
2018-08-23T17:24:11.208Z,25.43
2018-08-23T17:29:14.479Z,25.77
2018-08-23T17:34:17.679Z,24.23
2018-08-23T17:39:20.886Z,27.25
2018-08-23T17:44:24.140Z,24.77
2018-08-23T17:49:27.415Z,23.38
2018-08-23T17:54:30.563Z,22.45
2018-08-23T17:59:34.707Z,21.05
2018-08-23T18:04:37.902Z,21.75
2018-08-23T18:09:41.066Z,22.00
2018-08-23T18:14:44.259Z,19.90
2018-08-23T18:19:47.440Z,19.55
2018-08-23T18:24:50.703Z,20.25
2018-08-23T18:29:53.916Z,20.15
2018-08-23T18:34:57.171Z,20.70
2018-08-23T18:40:00.272Z,19.82
2018-08-23T18:45:03.439Z,21.02
2018-08-23T18:50:06.639Z,20.67
2018-08-23T18:55:09.839Z,22.62
2018-08-23T19:00:13.080Z,21.00
2018-08-23T19:05:16.205Z,17.85
2018-08-23T19:10:19.364Z,22.40
2018-08-23T19:15:27.942Z,18.25
2018-08-23T19:20:31.144Z,16.62
2018-08-23T19:25:34.378Z,19.35
2018-08-23T19:30:37.552Z,17.85
2018-08-23T19:35:40.722Z,17.40
2018-08-23T19:40:43.904Z,21.70
2018-08-23T19:45:52.670Z,20.10
2018-08-23T19:50:55.855Z,18.62
2018-08-23T19:55:59.019Z,16.35
2018-08-23T20:01:02.235Z,16.13
2018-08-23T20:06:05.458Z,16.97
2018-08-23T20:11:08.680Z,16.03
2018-08-23T20:16:11.959Z,16.60
2018-08-23T20:21:15.814Z,16.05
2018-08-23T20:26:19.036Z,16.42
2018-08-23T20:31:22.243Z,13.10
2018-08-23T20:36:25.517Z,12.58
2018-08-23T20:41:28.699Z,11.60
2018-08-23T20:46:31.963Z,12.33
2018-08-23T20:51:35.955Z,10.98
2018-08-23T20:56:39.184Z,9.78
2018-08-23T21:01:42.386Z,9.13
2018-08-23T21:06:45.591Z,12.23
2018-08-23T21:11:48.815Z,9.40
2018-08-23T21:16:52.038Z,8.30
2018-08-23T21:21:55.361Z,8.03
2018-08-23T21:26:58.599Z,12.15
2018-08-23T21:32:01.928Z,7.87
2018-08-23T21:37:05.258Z,7.45
2018-08-23T21:42:09.432Z,9.08
2018-08-23T21:47:12.639Z,7.10
2018-08-23T21:52:15.858Z,9.37
2018-08-23T21:57:19.081Z,8.80
2018-08-23T22:02:23.273Z,7.80
2018-08-23T22:07:26.474Z,9.68
2018-08-23T22:12:29.700Z,8.60
2018-08-23T22:17:32.936Z,6.17
2018-08-23T22:22:36.204Z,6.33
2018-08-23T22:27:39.411Z,7.62
2018-08-23T22:32:42.633Z,7.23
2018-08-23T22:37:45.886Z,4.85
2018-08-23T22:42:49.128Z,3.62
2018-08-23T22:47:52.351Z,3.92
2018-08-23T22:52:55.650Z,4.72
2018-08-23T22:57:58.846Z,3.95
2018-08-23T23:03:02.281Z,5.03
2018-08-23T23:08:07.628Z,4.03
2018-08-23T23:13:10.843Z,3.10
2018-08-23T23:18:13.981Z,3.37
2018-08-23T23:23:17.183Z,4.22
2018-08-23T23:28:20.350Z,4.40
2018-08-23T23:33:23.627Z,5.50
2018-08-23T23:38:26.848Z,7.17
2018-08-23T23:43:30.064Z,7.28
2018-08-23T23:48:34.575Z,7.83
2018-08-23T23:53:38.180Z,8.00
2018-08-23T23:58:41.446Z,9.17
